Time;durP1;ratioP1;P1;durP2;ratioP2;P2;SDS_P1;SDS_P2;PMS_P1;PMS_P2;Temp;Humidity;BMP_temperature;BMP_pressure;BME280_temperature;BME280_humidity;BME280_pressure;Samples;Min_cycle;Max_cycle;Signal;HPM_P1;HPM_P2
2022/03/01 00:01:46;;;;;;;0.40;0.20;;;3.10;84.80;;;;;;5014227;28;20857;-72
2022/03/01 00:04:12;;;;;;;0.40;0.20;;;3.10;85.40;;;;;;5013169;28;20460;-72
2022/03/01 00:06:38;;;;;;;0.40;0.20;;;3.00;85.30;;;;;;4996158;28;20413;-71
2022/03/01 00:09:04;;;;;;;0.40;0.20;;;3.00;85.20;;;;;;5012995;28;20388;-72
2022/03/01 00:11:32;;;;;;;0.70;0.50;;;3.00;86.70;;;;;;5013928;28;20405;-71
2022/03/01 00:13:58;;;;;;;0.40;0.20;;;3.10;87.70;;;;;;4996085;28;20611;-72
2022/03/01 00:16:24;;;;;;;0.40;0.40;;;3.10;86.10;;;;;;5012737;28;20404;-71
2022/03/01 00:18:50;;;;;;;0.40;0.30;;;3.00;86.70;;;;;;5013085;28;20450;-71
2022/03/01 00:21:16;;;;;;;0.40;0.30;;;3.00;86.40;;;;;;5012994;28;20392;-72
2022/03/01 00:23:42;;;;;;;0.40;0.20;;;3.10;87.70;;;;;;5013674;28;20899;-71
2022/03/01 00:26:08;;;;;;;0.70;0.70;;;3.00;87.60;;;;;;5013388;28;20392;-71
2022/03/01 00:28:33;;;;;;;0.40;0.40;;;2.90;88.10;;;;;;5012507;28;20896;-71
2022/03/01 00:30:59;;;;;;;0.40;0.30;;;2.90;87.70;;;;;;5013368;28;20407;-71
2022/03/01 00:33:25;;;;;;;1.05;0.85;;;2.90;87.60;;;;;;5013099;28;20393;-72
2022/03/01 00:35:51;;;;;;;0.40;0.20;;;2.90;89.20;;;;;;5013131;28;20908;-71
2022/03/01 00:38:17;;;;;;;0.50;0.50;;;2.90;89.70;;;;;;5013075;28;20463;-72
2022/03/01 00:40:43;;;;;;;0.80;0.80;;;2.90;89.00;;;;;;5012530;28;20489;-71
2022/03/01 00:43:09;;;;;;;0.40;0.30;;;2.90;88.80;;;;;;5013325;28;20853;-71
2022/03/01 00:45:35;;;;;;;0.40;0.40;;;2.80;87.80;;;;;;5012441;28;20381;-71
2022/03/01 00:48:01;;;;;;;0.40;0.30;;;2.80;88.80;;;;;;4995622;28;20413;-71
2022/03/01 00:50:26;;;;;;;0.50;0.50;;;2.70;87.80;;;;;;5012139;28;20546;-72
2022/03/01 00:52:52;;;;;;;0.70;0.70;;;2.70;89.30;;;;;;4995207;28;20947;-71
2022/03/01 00:55:18;;;;;;;0.40;0.20;;;2.70;89.10;;;;;;5012930;28;20383;-71
2022/03/01 00:57:43;;;;;;;0.40;0.20;;;2.70;89.30;;;;;;5011717;28;20758;-72
2022/03/01 01:00:10;;;;;;;0.40;0.20;;;2.70;89.60;;;;;;5008036;28;20398;-71
2022/03/01 01:02:36;;;;;;;1.00;0.90;;;2.70;90.00;;;;;;4992401;28;20390;-72
2022/03/01 01:05:02;;;;;;;0.90;0.60;;;2.70;89.10;;;;;;4992795;28;20406;-71
2022/03/01 01:07:27;;;;;;;0.40;0.20;;;2.60;89.30;;;;;;4975061;28;20414;-71
2022/03/01 01:09:53;;;;;;;0.40;0.20;;;2.60;90.40;;;;;;4992222;28;20397;-71
2022/03/01 01:12:19;;;;;;;0.40;0.20;;;2.60;90.00;;;;;;4992948;28;20418;-71
2022/03/01 01:14:44;;;;;;;0.50;0.50;;;2.60;90.00;;;;;;4992771;28;20397;-72
2022/03/01 01:17:10;;;;;;;0.90;0.90;;;2.60;89.80;;;;;;4993515;28;20382;-71
2022/03/01 01:19:36;;;;;;;0.52;0.50;;;2.60;88.80;;;;;;4975935;28;20402;-71
2022/03/01 01:24:47;;;;;;;0.80;0.60;;;2.50;90.30;;;;;;4993024;28;20381;-71
2022/03/01 01:27:13;;;;;;;0.40;0.20;;;2.40;89.10;;;;;;4974835;28;20418;-71
2022/03/01 01:29:39;;;;;;;0.40;0.20;;;2.40;89.50;;;;;;4992580;28;20752;-71
2022/03/01 01:32:05;;;;;;;0.40;0.20;;;2.30;89.90;;;;;;4992052;28;20402;-72
2022/03/01 01:34:31;;;;;;;0.90;0.60;;;2.40;89.90;;;;;;4992533;28;20863;-71
2022/03/01 01:36:56;;;;;;;0.40;0.20;;;2.30;89.90;;;;;;4992223;28;20477;-72
2022/03/01 01:39:22;;;;;;;0.40;0.37;;;2.40;88.60;;;;;;4974365;28;20391;-71
2022/03/01 01:41:48;;;;;;;0.40;0.20;;;2.40;88.90;;;;;;4974788;28;20918;-71
2022/03/01 01:44:14;;;;;;;0.40;0.20;;;2.40;90.00;;;;;;4991748;28;20383;-71
2022/03/01 01:46:39;;;;;;;1.50;1.40;;;2.30;88.90;;;;;;4991825;28;20422;-71
2022/03/01 01:49:05;;;;;;;0.40;0.20;;;2.30;88.90;;;;;;4992350;28;20485;-72
2022/03/01 01:51:31;;;;;;;1.20;1.10;;;2.30;88.40;;;;;;4974627;28;20506;-71
2022/03/01 01:53:57;;;;;;;0.80;0.80;;;2.30;88.40;;;;;;4991810;28;20859;-71
2022/03/01 01:56:22;;;;;;;0.90;0.80;;;2.20;88.30;;;;;;4991276;28;20815;-71
2022/03/01 01:58:48;;;;;;;0.40;0.20;;;2.20;89.60;;;;;;4992193;28;20426;-71
2022/03/01 02:01:14;;;;;;;0.70;0.70;;;2.20;89.80;;;;;;4973953;28;20391;-73
2022/03/01 02:03:40;;;;;;;1.20;1.00;;;2.10;87.80;;;;;;4992301;28;20411;-72
2022/03/01 02:06:06;;;;;;;0.40;0.30;;;2.10;88.20;;;;;;4974714;28;20859;-72
2022/03/01 02:08:33;;;;;;;0.40;0.40;;;2.10;89.10;;;;;;4991663;28;20397;-72
2022/03/01 02:10:59;;;;;;;0.40;0.20;;;2.00;88.80;;;;;;4974302;28;20783;-72
2022/03/01 02:13:26;;;;;;;0.60;0.50;;;2.10;89.20;;;;;;4990873;28;20478;-72
2022/03/01 02:15:54;;;;;;;0.40;0.20;;;2.10;88.70;;;;;;4991765;28;20395;-72
2022/03/01 02:18:21;;;;;;;0.40;0.20;;;2.10;89.10;;;;;;4992053;28;20387;-72
2022/03/01 02:20:47;;;;;;;0.40;0.20;;;2.10;89.60;;;;;;4991294;28;20428;-72
2022/03/01 02:23:13;;;;;;;0.57;0.57;;;2.00;89.00;;;;;;4991832;28;20390;-72
2022/03/01 02:25:39;;;;;;;0.40;0.20;;;2.00;90.30;;;;;;4990912;28;20422;-72
2022/03/01 02:28:05;;;;;;;0.40;0.20;;;2.00;89.20;;;;;;4991739;28;20490;-72
2022/03/01 02:30:31;;;;;;;0.70;0.70;;;2.00;90.00;;;;;;4991422;28;20387;-73
2022/03/01 02:32:57;;;;;;;0.40;0.20;;;2.00;89.40;;;;;;4991563;28;20406;-72
2022/03/01 02:35:23;;;;;;;0.40;0.20;;;2.00;88.90;;;;;;4991418;28;20867;-72
2022/03/01 02:37:49;;;;;;;0.40;0.20;;;2.00;88.20;;;;;;4990680;28;20874;-72
2022/03/01 02:40:16;;;;;;;0.90;0.70;;;2.00;88.60;;;;;;4991404;28;20860;-71
2022/03/01 02:42:45;;;;;;;0.50;0.50;;;1.90;88.80;;;;;;4990973;28;20723;-72
2022/03/01 02:45:13;;;;;;;0.40;0.20;;;1.90;89.00;;;;;;4991714;28;20474;-72
2022/03/01 02:47:39;;;;;;;0.40;0.20;;;1.80;90.30;;;;;;4973970;28;20907;-71
2022/03/01 02:50:07;;;;;;;0.40;0.20;;;1.90;90.20;;;;;;4990281;28;21008;-71
2022/03/01 02:52:33;;;;;;;0.50;0.50;;;1.90;90.10;;;;;;4991331;28;20485;-71
2022/03/01 02:55:00;;;;;;;0.40;0.20;;;1.80;89.90;;;;;;4990587;28;20398;-71
2022/03/01 02:57:26;;;;;;;0.60;0.60;;;1.80;89.70;;;;;;4973773;28;20476;-71
2022/03/01 02:59:52;;;;;;;0.40;0.20;;;1.70;89.50;;;;;;4990417;28;20414;-72
2022/03/01 03:02:18;;;;;;;0.70;0.70;;;1.80;90.20;;;;;;4957720;28;20498;-71
2022/03/01 03:04:44;;;;;;;0.40;0.38;;;1.80;89.70;;;;;;4973749;28;20485;-71
2022/03/01 03:07:11;;;;;;;0.40;0.30;;;1.70;89.70;;;;;;4990987;28;20421;-71
2022/03/01 03:09:37;;;;;;;0.40;0.20;;;1.70;90.00;;;;;;4991435;28;20878;-71
2022/03/01 03:12:04;;;;;;;0.40;0.30;;;1.70;90.00;;;;;;4990938;28;20411;-72
2022/03/01 03:14:30;;;;;;;0.77;0.57;;;1.70;90.20;;;;;;4991415;28;20393;-71
2022/03/01 03:16:55;;;;;;;0.40;0.30;;;1.60;90.10;;;;;;4991753;28;20399;-72
2022/03/01 03:19:21;;;;;;;0.40;0.20;;;1.60;90.30;;;;;;4991005;28;20394;-71
2022/03/01 03:21:47;;;;;;;0.60;0.50;;;1.70;90.10;;;;;;4991701;28;20398;-71
2022/03/01 03:24:13;;;;;;;0.40;0.30;;;1.60;90.30;;;;;;4990823;28;20387;-71
2022/03/01 03:26:39;;;;;;;0.40;0.20;;;1.60;90.30;;;;;;4990419;28;20572;-73
2022/03/01 03:29:09;;;;;;;0.40;0.20;;;1.60;90.10;;;;;;4991646;28;20481;-71
2022/03/01 03:31:37;;;;;;;0.40;0.20;;;1.60;90.10;;;;;;4991053;28;20858;-71
2022/03/01 03:34:08;;;;;;;0.40;0.20;;;1.70;89.70;;;;;;4990892;28;20401;-71
2022/03/01 03:36:34;;;;;;;3.00;0.60;;;1.60;90.40;;;;;;4990532;28;20460;-71
2022/03/01 03:39:01;;;;;;;0.40;0.20;;;1.60;90.10;;;;;;4990940;28;20808;-71
2022/03/01 03:41:27;;;;;;;0.40;0.20;;;1.50;89.80;;;;;;4990125;28;20464;-71
2022/03/01 03:43:52;;;;;;;0.40;0.20;;;1.50;89.70;;;;;;4991155;28;20398;-71
2022/03/01 03:46:18;;;;;;;0.60;0.60;;;1.50;90.00;;;;;;4990670;28;20473;-71
2022/03/01 03:48:44;;;;;;;0.50;0.50;;;1.50;90.20;;;;;;4989525;28;20486;-71
2022/03/01 03:51:09;;;;;;;0.50;0.50;;;1.40;89.20;;;;;;4991305;28;20434;-71
2022/03/01 03:53:35;;;;;;;0.40;0.30;;;1.50;90.10;;;;;;4989831;28;20441;-71
2022/03/01 03:56:01;;;;;;;0.40;0.20;;;1.50;90.00;;;;;;4990742;28;20390;-71
2022/03/01 03:58:26;;;;;;;0.40;0.20;;;1.60;89.40;;;;;;4990311;28;20751;-71
2022/03/01 04:00:52;;;;;;;0.80;0.70;;;1.60;88.90;;;;;;4989340;28;20401;-71
2022/03/01 04:03:18;;;;;;;0.40;0.20;;;1.30;89.50;;;;;;4972653;28;20401;-71
2022/03/01 04:05:43;;;;;;;0.40;0.20;;;1.30;90.00;;;;;;4989572;28;20409;-71
2022/03/01 04:08:10;;;;;;;0.40;0.20;;;1.20;89.80;;;;;;4990259;28;20891;-71
2022/03/01 04:10:36;;;;;;;0.40;0.20;;;1.30;89.90;;;;;;4990686;28;20422;-70
2022/03/01 04:13:01;;;;;;;0.40;0.25;;;1.20;90.00;;;;;;4990041;28;20410;-71
2022/03/01 04:15:27;;;;;;;0.40;0.30;;;1.10;90.10;;;;;;4990420;28;20887;-71
2022/03/01 04:17:53;;;;;;;0.40;0.20;;;1.00;90.60;;;;;;4989703;28;20406;-71
2022/03/01 04:20:21;;;;;;;0.40;0.20;;;1.10;90.80;;;;;;4972817;28;20413;-71
2022/03/01 04:22:47;;;;;;;0.40;0.20;;;1.10;91.00;;;;;;4989927;28;20469;-71
2022/03/01 04:25:13;;;;;;;0.50;0.50;;;1.10;91.20;;;;;;4990594;28;20489;-71
2022/03/01 04:27:39;;;;;;;1.00;1.00;;;1.00;91.20;;;;;;4989503;28;20911;-71
2022/03/01 04:30:06;;;;;;;0.40;0.20;;;1.00;91.30;;;;;;4989691;28;20383;-71
2022/03/01 04:32:32;;;;;;;0.40;0.30;;;1.00;91.50;;;;;;4990002;28;20405;-71
2022/03/01 04:34:58;;;;;;;0.90;0.68;;;1.10;92.20;;;;;;4989809;28;20439;-71
2022/03/01 04:37:23;;;;;;;0.40;0.40;;;1.00;91.70;;;;;;4991776;28;20406;-71
2022/03/01 04:39:49;;;;;;;0.40;0.20;;;1.00;92.00;;;;;;4994330;28;20379;-72
2022/03/01 04:42:15;;;;;;;0.40;0.20;;;1.00;92.30;;;;;;4993439;28;20861;-72
2022/03/01 04:44:41;;;;;;;0.80;0.60;;;0.90;92.70;;;;;;4994053;28;20510;-72
2022/03/01 04:47:07;;;;;;;0.40;0.20;;;0.80;92.40;;;;;;4993555;28;20410;-72
2022/03/01 04:49:33;;;;;;;0.40;0.20;;;0.80;92.80;;;;;;4992214;28;20890;-72
2022/03/01 04:51:59;;;;;;;0.70;0.70;;;0.80;93.30;;;;;;4974680;28;20489;-72
2022/03/01 04:54:24;;;;;;;0.40;0.20;;;0.70;93.50;;;;;;4975531;28;20386;-72
2022/03/01 04:56:50;;;;;;;0.60;0.60;;;0.80;93.50;;;;;;4993253;28;20455;-72
2022/03/01 04:59:16;;;;;;;0.68;0.47;;;0.80;93.30;;;;;;4975183;28;20395;-72
2022/03/01 05:01:42;;;;;;;0.40;0.20;;;0.70;93.60;;;;;;4993522;28;20383;-72
2022/03/01 05:04:07;;;;;;;0.40;0.20;;;0.60;93.80;;;;;;4993653;28;20747;-72
2022/03/01 05:06:33;;;;;;;0.40;0.20;;;0.60;94.30;;;;;;4993304;28;20422;-72
2022/03/01 05:08:59;;;;;;;0.40;0.30;;;0.60;94.40;;;;;;4976416;28;20411;-72
2022/03/01 05:11:25;;;;;;;0.40;0.40;;;0.50;94.30;;;;;;4992975;28;20399;-72
2022/03/01 05:13:50;;;;;;;0.50;0.40;;;0.50;95.00;;;;;;4993813;28;20454;-72
2022/03/01 05:16:16;;;;;;;0.40;0.20;;;0.50;95.00;;;;;;4993523;28;20470;-71
2022/03/01 05:18:42;;;;;;;0.40;0.20;;;0.40;94.90;;;;;;4992568;28;21015;-72
2022/03/01 05:21:08;;;;;;;0.40;0.20;;;0.40;95.70;;;;;;4975689;28;20497;-72
2022/03/01 05:23:34;;;;;;;0.40;0.30;;;0.30;95.60;;;;;;4992806;28;20783;-72
2022/03/01 05:26:00;;;;;;;0.60;0.60;;;0.40;95.80;;;;;;4993083;28;20391;-72
2022/03/01 05:28:25;;;;;;;1.00;0.90;;;0.40;95.50;;;;;;4993328;28;20415;-72
2022/03/01 05:30:52;;;;;;;0.40;0.30;;;0.40;95.30;;;;;;4992486;28;20402;-72
2022/03/01 05:33:17;;;;;;;0.40;0.20;;;0.40;95.40;;;;;;4993403;28;20387;-72
2022/03/01 05:35:44;;;;;;;0.40;0.20;;;0.40;94.80;;;;;;4992478;28;20461;-72
2022/03/01 05:38:10;;;;;;;0.40;0.20;;;0.20;95.40;;;;;;4993265;28;20720;-72
2022/03/01 05:40:37;;;;;;;0.40;0.30;;;0.10;96.20;;;;;;4992344;28;20391;-73
2022/03/01 05:43:05;;;;;;;0.40;0.20;;;0.20;95.80;;;;;;4992881;28;20390;-72
2022/03/01 05:45:30;;;;;;;0.40;0.30;;;0.20;96.80;;;;;;4975601;28;20807;-72
2022/03/01 05:47:57;;;;;;;0.50;0.50;;;0.10;96.00;;;;;;4992114;28;20442;-72
2022/03/01 05:50:23;;;;;;;0.40;0.20;;;0.10;95.80;;;;;;4974669;28;20405;-72
2022/03/01 05:52:49;;;;;;;1.00;0.90;;;0.10;95.80;;;;;;4991975;28;20386;-72
2022/03/01 05:55:16;;;;;;;0.40;0.20;;;0.20;95.70;;;;;;4993182;28;20386;-72
2022/03/01 05:57:42;;;;;;;0.45;0.43;;;0.10;95.70;;;;;;4975397;28;20391;-72
2022/03/01 06:00:12;;;;;;;0.90;0.80;;;0.10;96.70;;;;;;4992366;28;20399;-72
2022/03/01 06:02:38;;;;;;;0.40;0.20;;;0.00;95.90;;;;;;4975185;28;20402;-72
2022/03/01 06:05:04;;;;;;;0.40;0.20;;;0.00;96.10;;;;;;4974380;28;20470;-72
2022/03/01 06:07:30;;;;;;;0.40;0.20;;;-0.10;96.50;;;;;;4991904;28;20513;-72
2022/03/01 06:09:55;;;;;;;0.40;0.20;;;-0.10;98.40;;;;;;4991893;28;20493;-73
2022/03/01 06:12:21;;;;;;;3.00;0.70;;;-0.20;98.00;;;;;;4991481;28;20421;-72
2022/03/01 06:14:47;;;;;;;0.40;0.20;;;-0.20;99.90;;;;;;4992200;28;20941;-72
2022/03/01 06:17:12;;;;;;;0.40;0.20;;;-0.20;99.40;;;;;;4974127;28;20395;-72
2022/03/01 06:19:38;;;;;;;0.40;0.20;;;-0.20;99.70;;;;;;4992009;28;20476;-72
2022/03/01 06:22:05;;;;;;;1.20;1.10;;;-0.20;99.90;;;;;;4991650;28;20445;-73
2022/03/01 06:24:31;;;;;;;0.50;0.50;;;-0.30;99.90;;;;;;4992378;28;20383;-72
2022/03/01 06:26:58;;;;;;;0.40;0.30;;;-0.30;99.90;;;;;;4958686;28;20775;-72
2022/03/01 06:29:24;;;;;;;0.40;0.20;;;-0.40;99.90;;;;;;4991540;28;20386;-72
2022/03/01 06:31:49;;;;;;;0.40;0.20;;;-0.40;99.90;;;;;;4992178;28;20714;-72
2022/03/01 06:34:15;;;;;;;0.40;0.30;;;-0.30;99.80;;;;;;4984965;28;20395;-72
2022/03/01 06:36:41;;;;;;;0.40;0.20;;;-0.10;98.90;;;;;;4985509;28;20809;-72
2022/03/01 06:39:07;;;;;;;0.40;0.20;;;-0.20;99.50;;;;;;4985347;28;20434;-73
2022/03/01 06:41:33;;;;;;;0.40;0.20;;;-0.30;99.50;;;;;;4987699;28;20490;-73
2022/03/01 06:43:58;;;;;;;0.40;0.30;;;-0.20;99.30;;;;;;4991950;28;20425;-73
2022/03/01 06:46:25;;;;;;;0.40;0.40;;;-0.30;99.90;;;;;;4973353;28;20413;-72
2022/03/01 06:48:51;;;;;;;0.40;0.20;;;-0.30;99.90;;;;;;4991653;28;20465;-73
2022/03/01 06:51:16;;;;;;;0.80;0.80;;;-0.30;99.90;;;;;;4974336;28;20406;-73
2022/03/01 06:53:42;;;;;;;0.40;0.20;;;-0.10;99.90;;;;;;4990598;28;20957;-73
2022/03/01 06:56:08;;;;;;;0.40;0.20;;;-0.20;99.90;;;;;;4991255;28;20382;-73
2022/03/01 06:58:33;;;;;;;0.40;0.20;;;-0.10;99.90;;;;;;4990357;28;20477;-73
2022/03/01 07:01:02;;;;;;;0.40;0.20;;;0.00;99.60;;;;;;4990983;28;21002;-73
2022/03/01 07:03:28;;;;;;;0.43;0.22;;;0.00;99.60;;;;;;4990845;28;20490;-74
2022/03/01 07:05:54;;;;;;;0.40;0.40;;;0.10;98.40;;;;;;4988878;28;20537;-74
2022/03/01 07:08:22;;;;;;;0.50;0.50;;;0.20;97.50;;;;;;4990493;28;20410;-73
2022/03/01 07:10:48;;;;;;;0.40;0.20;;;0.30;97.00;;;;;;4972835;28;20429;-73
2022/03/01 07:13:14;;;;;;;0.40;0.20;;;0.40;96.30;;;;;;4989996;28;20398;-73
2022/03/01 07:15:40;;;;;;;0.70;0.60;;;0.50;95.60;;;;;;4990412;28;20406;-73
2022/03/01 07:18:05;;;;;;;0.40;0.20;;;0.60;95.10;;;;;;4973900;28;20409;-73
2022/03/01 07:20:31;;;;;;;0.40;0.20;;;0.50;94.60;;;;;;4991474;28;20430;-72
2022/03/01 07:22:57;;;;;;;0.40;0.20;;;0.70;94.30;;;;;;4990668;28;20395;-73
2022/03/01 07:25:23;;;;;;;0.40;0.20;;;0.80;94.30;;;;;;4991512;28;20452;-72
2022/03/01 07:27:51;;;;;;;0.40;0.20;;;0.90;93.90;;;;;;4972348;28;20906;-73
2022/03/01 07:30:18;;;;;;;0.40;0.30;;;0.80;93.80;;;;;;4970669;28;20417;-72
2022/03/01 07:32:44;;;;;;;0.57;0.50;;;0.90;94.00;;;;;;4990661;28;20393;-73
2022/03/01 07:35:10;;;;;;;0.50;0.40;;;1.00;93.00;;;;;;4973205;28;20814;-72
2022/03/01 07:37:37;;;;;;;0.40;0.20;;;1.00;92.80;;;;;;4974011;28;20398;-72
2022/03/01 07:40:08;;;;;;;0.60;0.60;;;1.20;92.40;;;;;;4990415;28;20449;-72
2022/03/01 07:42:33;;;;;;;0.40;0.20;;;1.30;92.30;;;;;;4974221;28;20396;-71
2022/03/01 07:44:59;;;;;;;0.40;0.20;;;1.40;91.50;;;;;;4972324;28;20477;-72
2022/03/01 07:47:25;;;;;;;0.40;0.20;;;1.50;91.20;;;;;;4973545;28;20923;-72
2022/03/01 07:49:50;;;;;;;0.90;0.60;;;1.50;90.60;;;;;;4990818;28;20434;-72
2022/03/01 07:52:16;;;;;;;0.40;0.22;;;1.70;90.70;;;;;;4989639;28;20959;-72
2022/03/01 07:54:42;;;;;;;0.40;0.30;;;1.80;90.70;;;;;;4973927;28;20421;-72
2022/03/01 07:57:08;;;;;;;0.40;0.20;;;1.80;90.00;;;;;;4972880;28;20413;-72
2022/03/01 07:59:33;;;;;;;0.40;0.40;;;1.90;88.90;;;;;;4990733;28;20394;-72
2022/03/01 08:01:59;;;;;;;0.40;0.20;;;2.00;90.00;;;;;;4973447;28;20387;-71
2022/03/01 08:04:25;;;;;;;0.70;0.70;;;2.10;88.60;;;;;;4972967;28;20548;-72
2022/03/01 08:06:50;;;;;;;0.40;0.20;;;2.10;88.90;;;;;;4973608;28;20421;-72
2022/03/01 08:09:16;;;;;;;0.40;0.20;;;2.20;90.20;;;;;;4989721;28;20879;-72
2022/03/01 08:11:42;;;;;;;0.40;0.20;;;2.20;87.20;;;;;;4969736;28;20415;-72
2022/03/01 08:14:08;;;;;;;0.40;0.30;;;2.10;87.40;;;;;;4975339;28;20380;-71
2022/03/01 08:16:33;;;;;;;0.40;0.40;;;2.10;88.00;;;;;;4972974;28;20396;-71
2022/03/01 08:18:59;;;;;;;0.40;0.20;;;2.10;87.40;;;;;;4973958;28;20407;-71
2022/03/01 08:21:25;;;;;;;0.40;0.20;;;2.20;88.10;;;;;;4973110;28;20404;-72
2022/03/01 08:23:51;;;;;;;0.40;0.20;;;2.40;89.90;;;;;;4975555;28;20422;-72
2022/03/01 08:26:17;;;;;;;0.40;0.20;;;2.60;87.80;;;;;;4975040;28;20390;-72
2022/03/01 08:28:45;;;;;;;0.50;0.50;;;2.90;85.20;;;;;;4973070;28;20420;-71
2022/03/01 08:31:36;;;;;;;0.40;0.30;;;3.00;78.80;;;;;;4975059;28;20438;-72
2022/03/01 08:34:02;;;;;;;0.40;0.20;;;3.20;80.90;;;;;;4974947;28;20388;-72
2022/03/01 08:36:28;;;;;;;0.40;0.20;;;3.30;80.40;;;;;;4974190;28;20447;-73
2022/03/01 08:38:54;;;;;;;0.40;0.20;;;3.40;78.10;;;;;;4974512;28;20907;-72
2022/03/01 08:41:23;;;;;;;0.40;0.30;;;3.40;77.80;;;;;;4974287;28;20483;-72
2022/03/01 08:43:51;;;;;;;0.50;0.50;;;3.50;77.70;;;;;;4973762;28;20943;-71
2022/03/01 08:46:20;;;;;;;0.40;0.30;;;3.70;76.70;;;;;;4973402;28;20392;-72
2022/03/01 08:48:46;;;;;;;0.40;0.20;;;3.70;76.30;;;;;;4972469;28;20408;-72
2022/03/01 08:51:15;;;;;;;1.80;1.70;;;3.80;74.10;;;;;;4974967;28;20408;-72
2022/03/01 08:53:41;;;;;;;0.40;0.20;;;3.80;75.30;;;;;;4973813;28;20407;-72
2022/03/01 08:56:10;;;;;;;0.40;0.30;;;3.90;73.10;;;;;;4974237;28;20805;-72
2022/03/01 08:58:36;;;;;;;0.40;0.40;;;4.10;71.90;;;;;;4974169;28;20392;-71
2022/03/01 09:01:07;;;;;;;1.10;1.00;;;4.10;70.90;;;;;;4973104;28;20445;-71
2022/03/01 09:03:36;;;;;;;0.70;0.70;;;4.10;71.90;;;;;;4974096;28;20467;-71
2022/03/01 09:06:06;;;;;;;0.40;0.20;;;4.30;70.40;;;;;;4973306;28;20393;-72
2022/03/01 09:08:39;;;;;;;2.90;0.80;;;4.30;70.30;;;;;;4974044;28;20843;-72
2022/03/01 09:11:11;;;;;;;0.90;0.80;;;4.30;70.00;;;;;;4979181;28;20433;-72
2022/03/01 09:13:38;;;;;;;0.80;0.80;;;4.30;70.70;;;;;;4976098;28;20418;-72
2022/03/01 09:16:05;;;;;;;0.40;0.30;;;4.30;70.90;;;;;;4975341;28;20398;-72
2022/03/01 09:18:43;;;;;;;1.30;0.65;;;4.30;70.70;;;;;;4975860;28;20394;-71
2022/03/01 09:21:09;;;;;;;0.50;0.50;;;4.50;69.50;;;;;;4992713;28;20402;-72
2022/03/01 09:23:35;;;;;;;0.70;0.70;;;4.60;68.70;;;;;;4993217;28;20398;-71
2022/03/01 09:26:02;;;;;;;0.70;0.70;;;4.50;68.00;;;;;;4992852;28;20875;-72
2022/03/01 09:28:28;;;;;;;0.40;0.20;;;4.50;68.10;;;;;;4993190;28;20498;-72
2022/03/01 09:30:54;;;;;;;0.40;0.20;;;4.50;67.40;;;;;;4975234;28;20394;-72
2022/03/01 09:33:19;;;;;;;0.40;0.20;;;4.70;70.10;;;;;;4992196;28;20382;-72
2022/03/01 09:35:46;;;;;;;0.60;0.60;;;4.70;68.10;;;;;;4992924;28;20929;-72
2022/03/01 09:38:12;;;;;;;0.40;0.20;;;4.80;67.90;;;;;;4992325;28;20495;-73
2022/03/01 09:40:38;;;;;;;0.90;0.70;;;4.70;67.00;;;;;;4975341;28;20395;-72
2022/03/01 09:43:04;;;;;;;1.00;0.80;;;4.90;67.60;;;;;;4992410;28;20437;-73
2022/03/01 09:45:30;;;;;;;0.40;0.30;;;4.90;67.50;;;;;;4992286;28;20387;-73
2022/03/01 09:47:56;;;;;;;2.90;1.40;;;5.10;67.90;;;;;;4975277;28;20473;-72
2022/03/01 09:50:27;;;;;;;1.03;1.03;;;5.00;68.50;;;;;;4991933;28;20421;-71
2022/03/01 09:52:58;;;;;;;0.40;0.20;;;5.00;68.60;;;;;;4993055;28;20719;-71
2022/03/01 09:55:25;;;;;;;0.40;0.20;;;5.20;67.80;;;;;;4974858;28;20402;-72
2022/03/01 09:57:51;;;;;;;0.40;0.30;;;5.40;67.30;;;;;;4992960;28;20430;-71
2022/03/01 10:00:17;;;;;;;1.10;1.00;;;5.60;66.00;;;;;;4992991;28;20399;-72
2022/03/01 10:02:44;;;;;;;0.50;0.50;;;5.70;65.30;;;;;;4992057;28;20882;-72
2022/03/01 10:05:12;;;;;;;0.70;0.70;;;5.70;65.10;;;;;;4992574;28;20382;-73
2022/03/01 10:07:43;;;;;;;0.40;0.40;;;5.70;65.20;;;;;;4991834;28;20418;-72
2022/03/01 10:10:16;;;;;;;0.90;0.90;;;5.90;65.20;;;;;;4992545;28;20720;-72
2022/03/01 10:12:53;;;;;;;0.40;0.30;;;6.20;64.20;;;;;;4991440;28;20407;-72
2022/03/01 10:15:31;;;;;;;0.70;0.70;;;6.00;62.00;;;;;;4992837;28;20402;-71
2022/03/01 10:17:57;;;;;;;1.25;1.15;;;5.90;62.50;;;;;;4974598;28;20402;-72
2022/03/01 10:20:24;;;;;;;1.10;0.80;;;6.10;62.10;;;;;;4992170;28;20864;-72
2022/03/01 10:22:52;;;;;;;0.40;0.20;;;6.30;63.90;;;;;;4991575;28;20385;-72
2022/03/01 10:25:21;;;;;;;0.40;0.22;;;6.20;61.80;;;;;;4991886;28;20904;-71
2022/03/01 10:27:48;;;;;;;2.50;1.00;;;6.30;58.50;;;;;;4991404;28;20521;-73
2022/03/01 10:30:26;;;;;;;0.40;0.30;;;6.20;57.80;;;;;;4992138;28;20477;-71
2022/03/01 10:33:08;;;;;;;0.40;0.30;;;6.40;58.60;;;;;;4974134;28;20402;-72
2022/03/01 10:35:36;;;;;;;0.40;0.40;;;6.40;58.50;;;;;;4991304;28;20871;-72
2022/03/01 10:38:03;;;;;;;0.80;0.80;;;6.30;58.90;;;;;;4973780;28;20460;-72
2022/03/01 10:40:30;;;;;;;0.40;0.27;;;6.40;59.00;;;;;;4974269;28;20888;-72
2022/03/01 10:43:01;;;;;;;0.40;0.20;;;6.70;58.20;;;;;;4990918;28;20387;-72
2022/03/01 10:45:37;;;;;;;0.40;0.20;;;6.90;57.70;;;;;;4992000;28;20406;-72
2022/03/01 10:48:04;;;;;;;0.80;0.80;;;6.90;57.10;;;;;;4991386;28;20462;-72
2022/03/01 10:50:30;;;;;;;0.40;0.20;;;6.70;54.50;;;;;;4974497;28;20859;-72
2022/03/01 10:52:56;;;;;;;0.73;0.73;;;7.00;53.30;;;;;;4990958;28;20466;-73
2022/03/01 10:55:28;;;;;;;0.70;0.70;;;7.20;52.00;;;;;;4991898;28;20517;-72
2022/03/01 10:58:09;;;;;;;0.80;0.80;;;7.10;51.90;;;;;;4974429;28;20743;-72
2022/03/01 11:00:36;;;;;;;0.50;0.40;;;7.10;51.20;;;;;;4991613;28;20397;-72
2022/03/01 11:03:06;;;;;;;0.70;0.70;;;7.20;51.30;;;;;;4990823;28;20474;-74
2022/03/01 11:05:33;;;;;;;0.40;0.40;;;7.30;52.30;;;;;;4991291;28;20399;-73
2022/03/01 11:08:09;;;;;;;0.40;0.20;;;7.40;51.30;;;;;;4991543;28;20418;-72
2022/03/01 11:10:37;;;;;;;0.98;0.98;;;7.50;52.30;;;;;;4991069;28;20386;-71
2022/03/01 11:13:05;;;;;;;1.40;1.30;;;7.20;53.30;;;;;;4974051;28;20403;-71
2022/03/01 11:15:58;;;;;;;0.80;0.80;;;7.30;54.20;;;;;;4957469;28;20394;-73
2022/03/01 11:18:44;;;;;;;0.40;0.30;;;7.40;54.00;;;;;;4990458;28;20386;-73
2022/03/01 11:21:14;;;;;;;0.40;0.20;;;7.60;53.70;;;;;;4991052;28;20529;-72
2022/03/01 11:23:42;;;;;;;0.40;0.20;;;7.40;52.20;;;;;;4991639;28;20860;-73
2022/03/01 11:26:10;;;;;;;0.90;0.60;;;7.60;51.70;;;;;;4991323;28;20393;-73
2022/03/01 11:28:42;;;;;;;1.35;1.25;;;7.60;50.20;;;;;;4990558;28;20418;-71
2022/03/01 11:31:28;;;;;;;0.60;0.50;;;8.50;49.80;;;;;;4991293;28;20732;-71
2022/03/01 11:33:58;;;;;;;0.40;0.20;;;9.30;48.50;;;;;;4991242;28;20862;-72
2022/03/01 11:36:27;;;;;;;0.40;0.20;;;10.20;45.10;;;;;;4990471;28;20859;-72
2022/03/01 11:38:53;;;;;;;0.40;0.30;;;10.20;43.40;;;;;;4973967;28;20399;-72
2022/03/01 11:41:22;;;;;;;0.40;0.30;;;10.90;42.90;;;;;;4991353;28;20386;-72
2022/03/01 11:44:08;;;;;;;0.40;0.40;;;10.90;42.80;;;;;;4991598;28;20390;-72
2022/03/01 11:46:43;;;;;;;0.40;0.20;;;10.90;41.60;;;;;;4973112;28;20387;-72
2022/03/01 11:49:11;;;;;;;0.40;0.20;;;11.90;41.80;;;;;;4995025;28;20394;-72
2022/03/01 11:51:39;;;;;;;0.40;0.20;;;12.20;40.50;;;;;;4994417;28;20410;-72
2022/03/01 11:54:11;;;;;;;0.40;0.20;;;12.20;39.00;;;;;;4995062;28;20477;-72
2022/03/01 11:56:39;;;;;;;0.40;0.20;;;12.20;37.80;;;;;;4993984;28;20396;-72
2022/03/01 11:59:11;;;;;;;0.40;0.20;;;12.30;37.70;;;;;;4977528;28;20524;-72
2022/03/01 12:01:37;;;;;;;0.40;0.30;;;12.10;38.20;;;;;;4976848;28;20401;-72
2022/03/01 12:04:05;;;;;;;0.40;0.20;;;11.70;37.30;;;;;;4977338;28;20405;-72
2022/03/01 12:06:34;;;;;;;0.40;0.30;;;13.20;38.60;;;;;;4994756;28;20506;-72
2022/03/01 12:09:03;;;;;;;0.40;0.30;;;13.40;36.40;;;;;;4994592;28;20379;-72
2022/03/01 12:11:32;;;;;;;0.40;0.20;;;12.90;37.00;;;;;;4994500;28;20449;-72
2022/03/01 12:14:04;;;;;;;0.40;0.30;;;12.40;37.20;;;;;;4993873;28;20409;-72
2022/03/01 12:16:30;;;;;;;0.40;0.30;;;12.80;37.90;;;;;;4994671;28;20387;-72
2022/03/01 12:19:17;;;;;;;0.40;0.30;;;11.10;37.80;;;;;;4993610;28;20385;-72
2022/03/01 12:21:51;;;;;;;0.40;0.20;;;11.20;40.30;;;;;;4994004;28;20536;-73
2022/03/01 12:24:18;;;;;;;0.40;0.30;;;10.80;41.80;;;;;;4994577;28;20390;-72
2022/03/01 12:26:47;;;;;;;0.50;0.40;;;11.70;42.30;;;;;;4993404;28;20396;-72
2022/03/01 12:29:16;;;;;;;0.40;0.20;;;12.50;39.90;;;;;;4994797;28;20771;-72
2022/03/01 12:31:42;;;;;;;3.50;1.00;;;11.90;40.50;;;;;;4994223;28;20386;-72
2022/03/01 12:34:09;;;;;;;0.40;0.30;;;11.30;39.70;;;;;;4993583;28;20466;-72
2022/03/01 12:36:41;;;;;;;0.40;0.30;;;10.70;40.80;;;;;;4976888;28;20437;-72
2022/03/01 12:39:16;;;;;;;0.40;0.30;;;11.20;40.90;;;;;;4976079;28;20709;-72
2022/03/01 12:41:44;;;;;;;1.30;0.70;;;11.50;42.00;;;;;;4994102;28;20446;-72
2022/03/01 12:44:12;;;;;;;0.60;0.30;;;12.00;41.00;;;;;;4993447;28;20453;-72
2022/03/01 12:46:39;;;;;;;0.60;0.50;;;12.30;39.70;;;;;;4994221;28;20414;-72
2022/03/01 12:49:08;;;;;;;0.40;0.30;;;13.20;38.20;;;;;;4993761;28;20378;-72
2022/03/01 12:51:35;;;;;;;0.40;0.30;;;13.70;37.60;;;;;;4976226;28;20414;-72
2022/03/01 12:54:06;;;;;;;0.50;0.50;;;13.40;37.70;;;;;;4993117;28;20421;-73
2022/03/01 12:56:33;;;;;;;0.40;0.20;;;13.30;38.20;;;;;;4993921;28;20379;-73
2022/03/01 12:59:12;;;;;;;0.40;0.30;;;12.90;37.90;;;;;;4992565;28;20918;-72